Terminal Aerodrome Forecast
Issued by NWS

Home | Current Version | Previous Version | Text Only | Print | Product List | Glossary On
Versions: 1 2 3 4 5 6 7 8 9 10 11 12 13 14 15
000
FTUS41 KBTV 011120
TAFSLK
TAF
KSLK 011120Z 0112/0212 19004KT P6SM VCSH OVC040
      TEMPO 0112/0114 4SM -SHRA BR SCT012 OVC028
     FM011400 21010G18KT P6SM -SHRA SCT010 OVC030
     FM011600 23010G18KT P6SM VCSH OVC028
      TEMPO 0116/0119 4SM SHRA BR OVC020
     FM012300 24008KT P6SM SCT025 BKN035=

USA.gov is the U.S. government's official web portal to all federal, state and local government web resources and services.